TJBQ/BQN METAR and TAF weather

Enter ICAO airport designator
Station Type Date Time Source
TJBQ METAR 2022/09/28 17:50 UTC NOAA

TJBQ 281750Z 07012G20KT 10SM CLR 30/23 A2990 RMK LTG DSNT NW


Station Type Date Time Source
TJBQ Decoded METAR 2022/09/28 17:50 UTC NOAA

Aquadilla, Rafael Hernandez Airport, PR, United States (TJBQ) 18-30N 067-08W 69M
Sep 28, 2022 - 01:50 PM EDT / 2022.09.28 1750 UTC
Wind: from the ENE (070 degrees) at 14 MPH (12 KT) gusting to 23 MPH (20 KT):0
Visibility: 10 mile(s):0
Sky conditions: clear
Weather: Lightning observed
Temperature: 86 F (30 C)
Heat index: 93.4 F (34.1 C):1
Dew Point: 73 F (23 C)
Relative Humidity: 66%
Pressure (altimeter): 29.9 in. Hg (1012 hPa)
ob: TJBQ 281750Z 07012G20KT 10SM CLR 30/23 A2990 RMK LTG DSNT NW
cycle: 18

Station Type Date Time Source
TJBQ TAF 2022/09/28 18:24 UTC NOAA

TAF TJBQ 281720Z 2818/2918 08016KT P6SM VCTS SCT025CB SCT040
FM282300 10007KT P6SM FEW025
FM291500 08012KT P6SM SCT030

Example: see airport list